Аэропорт: Ульяновск-Центральный. Ульяновск

ICAO: UWLL

METAR:
2022-06-26 11:30:00
UWLL 261130Z 36008MPS CAVOK 23/07 Q1016 R02/090065 NOSIG RMK QFE750/1000
METAR:
2022-06-26 10:54:00
TAF UWLL 261054Z 2612/2712 36008G14MPS 9999 SCT020 TX23/2612Z TN10/2700Z TEMPO 2618/2700 28003G08MPS